sensor_id;sensor_type;location;lat;lon;timestamp;temperature;humidity
10417;DHT22;62605;49.432;8.680;2023-05-24T00:02:22;12.10;1.00
10417;DHT22;62605;49.432;8.680;2023-05-24T00:05:01;12.10;1.00
10417;DHT22;62605;49.432;8.680;2023-05-24T00:11:05;12.30;1.00
10417;DHT22;62605;49.432;8.680;2023-05-24T00:13:36;12.40;1.00
10417;DHT22;62605;49.432;8.680;2023-05-24T00:16:07;12.30;1.00
10417;DHT22;62605;49.432;8.680;2023-05-24T00:18:52;12.40;1.00
10417;DHT22;62605;49.432;8.680;2023-05-24T00:21:22;12.50;1.00
10417;DHT22;62605;49.432;8.680;2023-05-24T00:23:53;12.50;1.00
10417;DHT22;62605;49.432;8.680;2023-05-24T00:26:23;12.40;1.00
10417;DHT22;62605;49.432;8.680;2023-05-24T00:28:57;12.20;1.00
10417;DHT22;62605;49.432;8.680;2023-05-24T00:31:30;12.20;1.00
10417;DHT22;62605;49.432;8.680;2023-05-24T00:34:02;12.20;1.00
10417;DHT22;62605;49.432;8.680;2023-05-24T00:36:47;12.20;1.00
10417;DHT22;62605;49.432;8.680;2023-05-24T00:39:18;12.30;1.00
10417;DHT22;62605;49.432;8.680;2023-05-24T00:41:50;12.40;1.00
10417;DHT22;62605;49.432;8.680;2023-05-24T00:44:27;12.40;1.00
10417;DHT22;62605;49.432;8.680;2023-05-24T00:47:02;12.50;99.90
10417;DHT22;62605;49.432;8.680;2023-05-24T00:49:43;12.50;99.90
10417;DHT22;62605;49.432;8.680;2023-05-24T00:52:19;12.50;99.90
10417;DHT22;62605;49.432;8.680;2023-05-24T00:54:49;12.60;99.90
10417;DHT22;62605;49.432;8.680;2023-05-24T00:57:21;12.60;99.90
10417;DHT22;62605;49.432;8.680;2023-05-24T01:00:00;12.50;99.90
10417;DHT22;62605;49.432;8.680;2023-05-24T01:02:34;12.40;99.90
10417;DHT22;62605;49.432;8.680;2023-05-24T01:05:08;12.20;99.90
10417;DHT22;62605;49.432;8.680;2023-05-24T01:07:58;12.20;99.90
10417;DHT22;62605;49.432;8.680;2023-05-24T01:10:38;12.10;99.90
10417;DHT22;62605;49.432;8.680;2023-05-24T01:13:26;12.10;99.90
10417;DHT22;62605;49.432;8.680;2023-05-24T01:16:24;12.10;99.90
10417;DHT22;62605;49.432;8.680;2023-05-24T01:19:26;12.10;99.90
10417;DHT22;62605;49.432;8.680;2023-05-24T01:22:23;12.10;99.90
10417;DHT22;62605;49.432;8.680;2023-05-24T01:25:06;12.00;99.90
10417;DHT22;62605;49.432;8.680;2023-05-24T01:27:53;12.00;99.90
10417;DHT22;62605;49.432;8.680;2023-05-24T01:30:24;12.10;99.90
10417;DHT22;62605;49.432;8.680;2023-05-24T01:32:58;12.10;99.90
10417;DHT22;62605;49.432;8.680;2023-05-24T01:35:29;12.20;99.90
10417;DHT22;62605;49.432;8.680;2023-05-24T01:38:07;12.20;99.90
10417;DHT22;62605;49.432;8.680;2023-05-24T01:40:48;12.10;99.90
10417;DHT22;62605;49.432;8.680;2023-05-24T01:43:25;12.10;99.90
10417;DHT22;62605;49.432;8.680;2023-05-24T01:46:04;12.10;99.90
10417;DHT22;62605;49.432;8.680;2023-05-24T01:49:00;12.10;99.90
10417;DHT22;62605;49.432;8.680;2023-05-24T01:51:40;12.10;99.90
10417;DHT22;62605;49.432;8.680;2023-05-24T01:54:21;12.20;99.90
10417;DHT22;62605;49.432;8.680;2023-05-24T01:56:56;12.20;99.90
10417;DHT22;62605;49.432;8.680;2023-05-24T01:59:32;12.10;99.90
10417;DHT22;62605;49.432;8.680;2023-05-24T02:02:10;12.10;99.90
10417;DHT22;62605;49.432;8.680;2023-05-24T02:04:42;12.10;99.90
10417;DHT22;62605;49.432;8.680;2023-05-24T02:07:13;12.10;99.90
10417;DHT22;62605;49.432;8.680;2023-05-24T02:09:46;12.20;99.90
10417;DHT22;62605;49.432;8.680;2023-05-24T02:12:17;12.10;99.90
10417;DHT22;62605;49.432;8.680;2023-05-24T02:14:57;12.10;99.90
10417;DHT22;62605;49.432;8.680;2023-05-24T02:17:29;12.10;99.90
10417;DHT22;62605;49.432;8.680;2023-05-24T02:20:04;12.00;99.90
10417;DHT22;62605;49.432;8.680;2023-05-24T02:22:37;12.10;99.90
10417;DHT22;62605;49.432;8.680;2023-05-24T02:25:14;12.00;99.90
10417;DHT22;62605;49.432;8.680;2023-05-24T02:27:46;12.10;99.90
10417;DHT22;62605;49.432;8.680;2023-05-24T02:30:21;12.10;99.90
10417;DHT22;62605;49.432;8.680;2023-05-24T02:32:52;12.00;99.90
10417;DHT22;62605;49.432;8.680;2023-05-24T02:35:23;12.00;99.90
10417;DHT22;62605;49.432;8.680;2023-05-24T02:37:55;12.00;99.90
10417;DHT22;62605;49.432;8.680;2023-05-24T02:40:28;11.90;99.90
10417;DHT22;62605;49.432;8.680;2023-05-24T02:43:01;11.80;99.90
10417;DHT22;62605;49.432;8.680;2023-05-24T02:45:43;11.90;99.90
10417;DHT22;62605;49.432;8.680;2023-05-24T02:48:15;11.90;99.90
10417;DHT22;62605;49.432;8.680;2023-05-24T02:50:47;11.90;99.90
10417;DHT22;62605;49.432;8.680;2023-05-24T02:53:21;11.80;99.90
10417;DHT22;62605;49.432;8.680;2023-05-24T02:55:56;11.80;99.90
10417;DHT22;62605;49.432;8.680;2023-05-24T02:58:27;11.80;99.90
10417;DHT22;62605;49.432;8.680;2023-05-24T03:01:00;11.80;99.90
10417;DHT22;62605;49.432;8.680;2023-05-24T03:03:32;11.80;99.90
10417;DHT22;62605;49.432;8.680;2023-05-24T03:06:06;11.80;99.90
10417;DHT22;62605;49.432;8.680;2023-05-24T03:08:40;11.80;99.90
10417;DHT22;62605;49.432;8.680;2023-05-24T03:11:10;11.80;99.90
10417;DHT22;62605;49.432;8.680;2023-05-24T03:13:39;11.80;99.90
10417;DHT22;62605;49.432;8.680;2023-05-24T03:16:26;11.80;99.90
10417;DHT22;62605;49.432;8.680;2023-05-24T03:18:58;11.70;99.90
10417;DHT22;62605;49.432;8.680;2023-05-24T03:21:27;11.70;99.90
10417;DHT22;62605;49.432;8.680;2023-05-24T03:24:08;11.70;99.90
10417;DHT22;62605;49.432;8.680;2023-05-24T03:26:40;11.60;99.90
10417;DHT22;62605;49.432;8.680;2023-05-24T03:29:11;11.60;99.90
10417;DHT22;62605;49.432;8.680;2023-05-24T03:31:42;11.60;99.90
10417;DHT22;62605;49.432;8.680;2023-05-24T03:34:12;11.60;99.90
10417;DHT22;62605;49.432;8.680;2023-05-24T03:36:40;11.60;99.90
10417;DHT22;62605;49.432;8.680;2023-05-24T03:39:09;11.60;99.90
10417;DHT22;62605;49.432;8.680;2023-05-24T03:41:41;11.50;99.90
10417;DHT22;62605;49.432;8.680;2023-05-24T03:44:13;11.50;99.90
10417;DHT22;62605;49.432;8.680;2023-05-24T03:46:46;11.50;99.90
10417;DHT22;62605;49.432;8.680;2023-05-24T03:49:17;11.50;99.90
10417;DHT22;62605;49.432;8.680;2023-05-24T03:51:49;11.50;99.90
10417;DHT22;62605;49.432;8.680;2023-05-24T03:54:18;11.50;99.90
10417;DHT22;62605;49.432;8.680;2023-05-24T03:56:48;11.40;99.90
10417;DHT22;62605;49.432;8.680;2023-05-24T03:59:20;11.50;99.90
10417;DHT22;62605;49.432;8.680;2023-05-24T04:01:54;11.40;99.90
10417;DHT22;62605;49.432;8.680;2023-05-24T04:04:24;11.50;99.90
10417;DHT22;62605;49.432;8.680;2023-05-24T04:06:58;11.40;99.90
10417;DHT22;62605;49.432;8.680;2023-05-24T04:10:01;11.50;99.90
10417;DHT22;62605;49.432;8.680;2023-05-24T04:12:56;11.50;99.90
10417;DHT22;62605;49.432;8.680;2023-05-24T04:15:51;11.50;99.90
10417;DHT22;62605;49.432;8.680;2023-05-24T04:18:31;11.50;99.90
10417;DHT22;62605;49.432;8.680;2023-05-24T04:21:03;11.50;99.90
10417;DHT22;62605;49.432;8.680;2023-05-24T04:23:38;11.60;99.90
10417;DHT22;62605;49.432;8.680;2023-05-24T04:26:11;11.50;99.90
10417;DHT22;62605;49.432;8.680;2023-05-24T04:28:52;11.60;99.90
10417;DHT22;62605;49.432;8.680;2023-05-24T04:31:26;11.70;99.90
10417;DHT22;62605;49.432;8.680;2023-05-24T04:34:12;11.60;99.90
10417;DHT22;62605;49.432;8.680;2023-05-24T04:36:48;11.60;99.90
10417;DHT22;62605;49.432;8.680;2023-05-24T04:39:21;11.40;99.90
10417;DHT22;62605;49.432;8.680;2023-05-24T04:41:59;11.40;99.90
10417;DHT22;62605;49.432;8.680;2023-05-24T04:44:33;11.40;99.90
10417;DHT22;62605;49.432;8.680;2023-05-24T04:47:10;11.30;99.90
10417;DHT22;62605;49.432;8.680;2023-05-24T04:50:03;11.10;99.90
10417;DHT22;62605;49.432;8.680;2023-05-24T04:52:53;11.20;99.90
10417;DHT22;62605;49.432;8.680;2023-05-24T04:56:09;11.10;99.90
10417;DHT22;62605;49.432;8.680;2023-05-24T04:58:51;11.10;99.90
10417;DHT22;62605;49.432;8.680;2023-05-24T05:01:27;11.20;99.90
10417;DHT22;62605;49.432;8.680;2023-05-24T05:04:21;11.20;99.90
10417;DHT22;62605;49.432;8.680;2023-05-24T05:07:41;11.20;99.90
10417;DHT22;62605;49.432;8.680;2023-05-24T05:10:26;11.20;99.90
10417;DHT22;62605;49.432;8.680;2023-05-24T05:13:27;11.20;99.90
10417;DHT22;62605;49.432;8.680;2023-05-24T05:15:54;11.30;99.90
10417;DHT22;62605;49.432;8.680;2023-05-24T05:18:22;11.40;99.90
10417;DHT22;62605;49.432;8.680;2023-05-24T05:20:58;11.40;99.90
10417;DHT22;62605;49.432;8.680;2023-05-24T05:23:27;11.40;99.90
10417;DHT22;62605;49.432;8.680;2023-05-24T05:25:54;11.50;99.90
10417;DHT22;62605;49.432;8.680;2023-05-24T05:28:26;11.30;99.90
10417;DHT22;62605;49.432;8.680;2023-05-24T05:30:53;11.30;99.90
10417;DHT22;62605;49.432;8.680;2023-05-24T05:33:21;11.30;99.90
10417;DHT22;62605;49.432;8.680;2023-05-24T05:35:48;11.20;99.90
10417;DHT22;62605;49.432;8.680;2023-05-24T05:38:15;11.30;99.90
10417;DHT22;62605;49.432;8.680;2023-05-24T05:40:44;11.40;99.90
10417;DHT22;62605;49.432;8.680;2023-05-24T05:43:11;11.40;99.90
10417;DHT22;62605;49.432;8.680;2023-05-24T05:45:38;11.50;99.90
10417;DHT22;62605;49.432;8.680;2023-05-24T05:48:06;11.50;99.90
10417;DHT22;62605;49.432;8.680;2023-05-24T05:50:33;11.50;99.90
10417;DHT22;62605;49.432;8.680;2023-05-24T05:53:00;11.50;99.90
10417;DHT22;62605;49.432;8.680;2023-05-24T05:55:27;11.40;99.90
10417;DHT22;62605;49.432;8.680;2023-05-24T05:57:55;11.40;99.90
10417;DHT22;62605;49.432;8.680;2023-05-24T06:00:22;11.50;99.90
10417;DHT22;62605;49.432;8.680;2023-05-24T06:02:50;11.60;99.90
10417;DHT22;62605;49.432;8.680;2023-05-24T06:05:18;11.40;99.90
10417;DHT22;62605;49.432;8.680;2023-05-24T06:07:46;11.30;99.90
10417;DHT22;62605;49.432;8.680;2023-05-24T06:10:14;11.10;99.90
10417;DHT22;62605;49.432;8.680;2023-05-24T06:12:42;11.20;99.90
10417;DHT22;62605;49.432;8.680;2023-05-24T06:15:11;11.30;99.90
10417;DHT22;62605;49.432;8.680;2023-05-24T06:17:39;11.40;99.90
10417;DHT22;62605;49.432;8.680;2023-05-24T06:20:07;11.50;99.90
10417;DHT22;62605;49.432;8.680;2023-05-24T06:22:36;11.50;99.90
10417;DHT22;62605;49.432;8.680;2023-05-24T06:25:05;11.60;99.90
10417;DHT22;62605;49.432;8.680;2023-05-24T06:27:32;11.60;99.90
10417;DHT22;62605;49.432;8.680;2023-05-24T06:29:59;11.40;99.90
10417;DHT22;62605;49.432;8.680;2023-05-24T06:32:27;11.40;99.90
10417;DHT22;62605;49.432;8.680;2023-05-24T06:34:55;11.40;99.90
10417;DHT22;62605;49.432;8.680;2023-05-24T06:37:21;11.50;99.90
10417;DHT22;62605;49.432;8.680;2023-05-24T06:39:49;11.60;99.90
10417;DHT22;62605;49.432;8.680;2023-05-24T06:42:17;11.80;99.90
10417;DHT22;62605;49.432;8.680;2023-05-24T06:44:43;11.80;99.90
10417;DHT22;62605;49.432;8.680;2023-05-24T06:47:10;11.80;99.90
10417;DHT22;62605;49.432;8.680;2023-05-24T06:49:39;11.70;99.90
10417;DHT22;62605;49.432;8.680;2023-05-24T06:52:06;11.90;99.90
10417;DHT22;62605;49.432;8.680;2023-05-24T06:54:33;11.80;99.90
10417;DHT22;62605;49.432;8.680;2023-05-24T06:57:01;11.90;99.90
10417;DHT22;62605;49.432;8.680;2023-05-24T06:59:28;12.20;99.90
10417;DHT22;62605;49.432;8.680;2023-05-24T07:01:55;12.30;99.90
10417;DHT22;62605;49.432;8.680;2023-05-24T07:04:23;12.10;99.90
10417;DHT22;62605;49.432;8.680;2023-05-24T07:06:51;12.30;99.90
10417;DHT22;62605;49.432;8.680;2023-05-24T07:09:20;12.50;99.90
10417;DHT22;62605;49.432;8.680;2023-05-24T07:11:47;12.50;99.90
10417;DHT22;62605;49.432;8.680;2023-05-24T07:14:14;12.60;99.90
10417;DHT22;62605;49.432;8.680;2023-05-24T07:16:41;12.70;99.90
10417;DHT22;62605;49.432;8.680;2023-05-24T07:19:08;12.50;99.90
10417;DHT22;62605;49.432;8.680;2023-05-24T07:21:35;12.40;99.90
10417;DHT22;62605;49.432;8.680;2023-05-24T07:24:04;12.50;99.90
10417;DHT22;62605;49.432;8.680;2023-05-24T07:26:31;12.70;99.90
10417;DHT22;62605;49.432;8.680;2023-05-24T07:28:58;12.50;99.90
10417;DHT22;62605;49.432;8.680;2023-05-24T07:31:25;12.70;99.90
10417;DHT22;62605;49.432;8.680;2023-05-24T07:33:56;13.00;99.90
10417;DHT22;62605;49.432;8.680;2023-05-24T07:36:23;13.10;99.90
10417;DHT22;62605;49.432;8.680;2023-05-24T07:38:50;13.30;99.90
10417;DHT22;62605;49.432;8.680;2023-05-24T07:41:19;13.40;99.90
10417;DHT22;62605;49.432;8.680;2023-05-24T07:43:46;13.30;99.90
10417;DHT22;62605;49.432;8.680;2023-05-24T07:46:13;13.10;99.90
10417;DHT22;62605;49.432;8.680;2023-05-24T07:48:41;13.00;99.90
10417;DHT22;62605;49.432;8.680;2023-05-24T07:51:07;13.10;99.90
10417;DHT22;62605;49.432;8.680;2023-05-24T07:53:35;13.00;99.90
10417;DHT22;62605;49.432;8.680;2023-05-24T07:56:05;13.20;99.90
10417;DHT22;62605;49.432;8.680;2023-05-24T07:58:35;13.40;99.10
10417;DHT22;62605;49.432;8.680;2023-05-24T08:01:05;13.40;95.30
10417;DHT22;62605;49.432;8.680;2023-05-24T08:03:33;13.40;98.40
10417;DHT22;62605;49.432;8.680;2023-05-24T08:06:01;13.30;81.40
10417;DHT22;62605;49.432;8.680;2023-05-24T08:08:28;13.30;79.40
10417;DHT22;62605;49.432;8.680;2023-05-24T08:10:55;13.40;66.90
10417;DHT22;62605;49.432;8.680;2023-05-24T08:13:22;13.70;78.20
10417;DHT22;62605;49.432;8.680;2023-05-24T08:15:51;13.60;62.80
10417;DHT22;62605;49.432;8.680;2023-05-24T08:18:18;13.60;41.30
10417;DHT22;62605;49.432;8.680;2023-05-24T08:20:45;13.60;23.40
10417;DHT22;62605;49.432;8.680;2023-05-24T08:23:12;13.80;27.10
10417;DHT22;62605;49.432;8.680;2023-05-24T08:25:39;13.70;14.30
10417;DHT22;62605;49.432;8.680;2023-05-24T08:28:09;13.20;1.00
10417;DHT22;62605;49.432;8.680;2023-05-24T08:30:36;13.50;1.00
10417;DHT22;62605;49.432;8.680;2023-05-24T08:33:05;13.70;1.00
10417;DHT22;62605;49.432;8.680;2023-05-24T08:35:35;13.90;1.00
10417;DHT22;62605;49.432;8.680;2023-05-24T08:38:02;13.90;1.00
10417;DHT22;62605;49.432;8.680;2023-05-24T08:40:29;14.10;1.00
10417;DHT22;62605;49.432;8.680;2023-05-24T08:42:58;14.20;1.00
10417;DHT22;62605;49.432;8.680;2023-05-24T08:45:28;14.10;1.00
10417;DHT22;62605;49.432;8.680;2023-05-24T08:47:56;14.20;1.00
10417;DHT22;62605;49.432;8.680;2023-05-24T08:50:25;14.10;1.00
10417;DHT22;62605;49.432;8.680;2023-05-24T08:52:53;14.40;1.00
10417;DHT22;62605;49.432;8.680;2023-05-24T08:55:21;14.50;1.00
10417;DHT22;62605;49.432;8.680;2023-05-24T08:57:49;14.60;1.00
10417;DHT22;62605;49.432;8.680;2023-05-24T09:00:17;14.40;1.00
10417;DHT22;62605;49.432;8.680;2023-05-24T09:02:45;14.40;1.00
10417;DHT22;62605;49.432;8.680;2023-05-24T09:05:13;14.50;1.00
10417;DHT22;62605;49.432;8.680;2023-05-24T09:07:44;14.60;1.00
10417;DHT22;62605;49.432;8.680;2023-05-24T09:10:12;14.80;1.00
10417;DHT22;62605;49.432;8.680;2023-05-24T09:12:43;14.80;1.00
10417;DHT22;62605;49.432;8.680;2023-05-24T09:15:10;14.70;1.00
10417;DHT22;62605;49.432;8.680;2023-05-24T09:17:38;14.90;1.00
10417;DHT22;62605;49.432;8.680;2023-05-24T09:20:07;15.00;1.00
10417;DHT22;62605;49.432;8.680;2023-05-24T09:22:36;15.10;1.00
10417;DHT22;62605;49.432;8.680;2023-05-24T09:25:06;15.30;1.00
10417;DHT22;62605;49.432;8.680;2023-05-24T09:27:34;15.40;1.00
10417;DHT22;62605;49.432;8.680;2023-05-24T09:30:03;15.20;1.00
10417;DHT22;62605;49.432;8.680;2023-05-24T09:32:34;15.40;1.00
10417;DHT22;62605;49.432;8.680;2023-05-24T09:35:02;15.50;1.00
10417;DHT22;62605;49.432;8.680;2023-05-24T09:37:35;15.40;1.00
10417;DHT22;62605;49.432;8.680;2023-05-24T09:40:05;15.40;1.00
10417;DHT22;62605;49.432;8.680;2023-05-24T09:42:33;15.40;1.00
10417;DHT22;62605;49.432;8.680;2023-05-24T09:45:01;15.40;1.00
10417;DHT22;62605;49.432;8.680;2023-05-24T09:47:29;15.50;1.00
10417;DHT22;62605;49.432;8.680;2023-05-24T09:49:58;15.80;1.00
10417;DHT22;62605;49.432;8.680;2023-05-24T09:52:25;15.80;1.00
10417;DHT22;62605;49.432;8.680;2023-05-24T09:54:52;15.40;1.00
10417;DHT22;62605;49.432;8.680;2023-05-24T09:57:28;15.20;1.00
10417;DHT22;62605;49.432;8.680;2023-05-24T10:00:01;15.20;1.00
10417;DHT22;62605;49.432;8.680;2023-05-24T10:02:32;15.20;1.00
10417;DHT22;62605;49.432;8.680;2023-05-24T10:05:05;15.60;1.00
10417;DHT22;62605;49.432;8.680;2023-05-24T10:07:35;16.10;1.00
10417;DHT22;62605;49.432;8.680;2023-05-24T10:10:07;16.40;1.00
10417;DHT22;62605;49.432;8.680;2023-05-24T10:12:38;16.50;1.00
10417;DHT22;62605;49.432;8.680;2023-05-24T10:15:10;16.60;1.00
10417;DHT22;62605;49.432;8.680;2023-05-24T10:17:37;16.40;1.00
10417;DHT22;62605;49.432;8.680;2023-05-24T10:20:05;16.00;1.00
10417;DHT22;62605;49.432;8.680;2023-05-24T10:22:38;15.80;1.00
10417;DHT22;62605;49.432;8.680;2023-05-24T10:25:07;15.50;1.00
10417;DHT22;62605;49.432;8.680;2023-05-24T10:27:39;15.30;1.00
10417;DHT22;62605;49.432;8.680;2023-05-24T10:30:13;15.10;1.00
10417;DHT22;62605;49.432;8.680;2023-05-24T10:32:42;14.90;1.00
10417;DHT22;62605;49.432;8.680;2023-05-24T10:35:10;15.10;1.00
10417;DHT22;62605;49.432;8.680;2023-05-24T10:37:39;15.50;1.00
10417;DHT22;62605;49.432;8.680;2023-05-24T10:40:15;15.70;1.00
10417;DHT22;62605;49.432;8.680;2023-05-24T10:42:45;15.60;1.00
10417;DHT22;62605;49.432;8.680;2023-05-24T10:45:30;16.00;1.00
10417;DHT22;62605;49.432;8.680;2023-05-24T10:48:07;16.00;1.00
10417;DHT22;62605;49.432;8.680;2023-05-24T10:50:34;16.50;1.00
10417;DHT22;62605;49.432;8.680;2023-05-24T10:53:11;16.30;1.00
10417;DHT22;62605;49.432;8.680;2023-05-24T10:55:52;15.70;1.00
10417;DHT22;62605;49.432;8.680;2023-05-24T10:58:22;15.40;1.00
10417;DHT22;62605;49.432;8.680;2023-05-24T11:00:52;16.00;1.00
10417;DHT22;62605;49.432;8.680;2023-05-24T11:03:22;16.10;1.00
10417;DHT22;62605;49.432;8.680;2023-05-24T11:05:51;16.10;1.00
10417;DHT22;62605;49.432;8.680;2023-05-24T11:08:23;15.90;1.00
10417;DHT22;62605;49.432;8.680;2023-05-24T11:11:01;16.10;1.00
10417;DHT22;62605;49.432;8.680;2023-05-24T11:13:31;16.30;1.00
10417;DHT22;62605;49.432;8.680;2023-05-24T11:16:01;16.40;1.00
10417;DHT22;62605;49.432;8.680;2023-05-24T11:18:29;16.50;1.00
10417;DHT22;62605;49.432;8.680;2023-05-24T11:20:58;16.70;1.00
10417;DHT22;62605;49.432;8.680;2023-05-24T11:23:25;16.50;1.00
10417;DHT22;62605;49.432;8.680;2023-05-24T11:25:53;16.50;1.00
10417;DHT22;62605;49.432;8.680;2023-05-24T11:28:22;16.20;1.00
10417;DHT22;62605;49.432;8.680;2023-05-24T11:30:51;16.60;1.00
10417;DHT22;62605;49.432;8.680;2023-05-24T11:33:19;16.80;1.00
10417;DHT22;62605;49.432;8.680;2023-05-24T11:35:47;16.80;1.00
10417;DHT22;62605;49.432;8.680;2023-05-24T11:38:18;17.00;1.00
10417;DHT22;62605;49.432;8.680;2023-05-24T11:40:49;16.80;1.00
10417;DHT22;62605;49.432;8.680;2023-05-24T11:43:17;16.50;1.00
10417;DHT22;62605;49.432;8.680;2023-05-24T11:45:47;16.60;1.00
10417;DHT22;62605;49.432;8.680;2023-05-24T11:48:16;16.60;1.00
10417;DHT22;62605;49.432;8.680;2023-05-24T11:50:45;16.60;1.00
10417;DHT22;62605;49.432;8.680;2023-05-24T11:53:14;16.90;1.00
10417;DHT22;62605;49.432;8.680;2023-05-24T11:55:41;17.00;1.00
10417;DHT22;62605;49.432;8.680;2023-05-24T11:58:12;17.30;1.00
10417;DHT22;62605;49.432;8.680;2023-05-24T12:00:41;17.30;1.00
10417;DHT22;62605;49.432;8.680;2023-05-24T12:03:08;17.20;1.00
10417;DHT22;62605;49.432;8.680;2023-05-24T12:05:37;16.50;1.00
10417;DHT22;62605;49.432;8.680;2023-05-24T12:08:06;17.00;1.00
10417;DHT22;62605;49.432;8.680;2023-05-24T12:10:34;17.40;1.00
10417;DHT22;62605;49.432;8.680;2023-05-24T12:13:01;17.20;1.00
10417;DHT22;62605;49.432;8.680;2023-05-24T12:15:29;17.30;1.00
10417;DHT22;62605;49.432;8.680;2023-05-24T12:17:57;17.30;1.00
10417;DHT22;62605;49.432;8.680;2023-05-24T12:20:26;17.40;1.00
10417;DHT22;62605;49.432;8.680;2023-05-24T12:22:55;17.00;1.00
10417;DHT22;62605;49.432;8.680;2023-05-24T12:25:22;17.40;1.00
10417;DHT22;62605;49.432;8.680;2023-05-24T12:27:52;17.50;1.00
10417;DHT22;62605;49.432;8.680;2023-05-24T12:30:21;17.80;1.00
10417;DHT22;62605;49.432;8.680;2023-05-24T12:32:49;17.80;1.00
10417;DHT22;62605;49.432;8.680;2023-05-24T12:35:19;17.90;1.00
10417;DHT22;62605;49.432;8.680;2023-05-24T12:37:46;17.80;1.00
10417;DHT22;62605;49.432;8.680;2023-05-24T12:40:16;17.60;1.00
10417;DHT22;62605;49.432;8.680;2023-05-24T12:42:45;18.00;1.00
10417;DHT22;62605;49.432;8.680;2023-05-24T12:45:16;17.80;1.00
10417;DHT22;62605;49.432;8.680;2023-05-24T12:47:48;18.00;1.00
10417;DHT22;62605;49.432;8.680;2023-05-24T12:50:17;18.50;1.00
10417;DHT22;62605;49.432;8.680;2023-05-24T12:52:44;18.10;1.00
10417;DHT22;62605;49.432;8.680;2023-05-24T12:55:12;18.20;1.00
10417;DHT22;62605;49.432;8.680;2023-05-24T12:57:42;18.30;1.00
10417;DHT22;62605;49.432;8.680;2023-05-24T13:00:10;18.00;1.00
10417;DHT22;62605;49.432;8.680;2023-05-24T13:02:39;18.10;1.00
10417;DHT22;62605;49.432;8.680;2023-05-24T13:05:07;18.10;1.00
10417;DHT22;62605;49.432;8.680;2023-05-24T13:07:35;18.40;1.00
10417;DHT22;62605;49.432;8.680;2023-05-24T13:10:02;18.40;1.00
10417;DHT22;62605;49.432;8.680;2023-05-24T13:12:29;18.30;1.00
10417;DHT22;62605;49.432;8.680;2023-05-24T13:14:58;18.30;1.00
10417;DHT22;62605;49.432;8.680;2023-05-24T13:17:25;18.50;1.00
10417;DHT22;62605;49.432;8.680;2023-05-24T13:19:52;18.40;1.00
10417;DHT22;62605;49.432;8.680;2023-05-24T13:22:20;18.20;1.00
10417;DHT22;62605;49.432;8.680;2023-05-24T13:24:47;18.00;1.00
10417;DHT22;62605;49.432;8.680;2023-05-24T13:27:14;17.80;1.00
10417;DHT22;62605;49.432;8.680;2023-05-24T13:29:41;18.10;1.00
10417;DHT22;62605;49.432;8.680;2023-05-24T13:32:09;18.20;1.00
10417;DHT22;62605;49.432;8.680;2023-05-24T13:34:36;18.10;1.00
10417;DHT22;62605;49.432;8.680;2023-05-24T13:37:04;18.00;1.00
10417;DHT22;62605;49.432;8.680;2023-05-24T13:39:32;18.30;1.00
10417;DHT22;62605;49.432;8.680;2023-05-24T13:41:59;18.10;1.00
10417;DHT22;62605;49.432;8.680;2023-05-24T13:44:27;18.40;1.00
10417;DHT22;62605;49.432;8.680;2023-05-24T13:46:55;18.30;1.00
10417;DHT22;62605;49.432;8.680;2023-05-24T13:49:24;18.30;1.00
10417;DHT22;62605;49.432;8.680;2023-05-24T13:51:52;18.60;1.00
10417;DHT22;62605;49.432;8.680;2023-05-24T13:54:19;18.50;1.00
10417;DHT22;62605;49.432;8.680;2023-05-24T13:56:47;18.30;1.00
10417;DHT22;62605;49.432;8.680;2023-05-24T13:59:15;18.50;1.00
10417;DHT22;62605;49.432;8.680;2023-05-24T14:01:43;18.40;1.00
10417;DHT22;62605;49.432;8.680;2023-05-24T14:04:10;18.50;1.00
10417;DHT22;62605;49.432;8.680;2023-05-24T14:06:39;18.60;1.00
10417;DHT22;62605;49.432;8.680;2023-05-24T14:09:06;18.70;1.00
10417;DHT22;62605;49.432;8.680;2023-05-24T14:11:34;18.50;1.00
10417;DHT22;62605;49.432;8.680;2023-05-24T14:14:06;19.00;1.00
10417;DHT22;62605;49.432;8.680;2023-05-24T14:16:33;19.10;1.00
10417;DHT22;62605;49.432;8.680;2023-05-24T14:19:01;18.80;1.00
10417;DHT22;62605;49.432;8.680;2023-05-24T14:21:29;18.50;1.00
10417;DHT22;62605;49.432;8.680;2023-05-24T14:23:58;18.60;1.00
10417;DHT22;62605;49.432;8.680;2023-05-24T14:26:27;18.70;1.00
10417;DHT22;62605;49.432;8.680;2023-05-24T14:28:55;18.80;1.00
10417;DHT22;62605;49.432;8.680;2023-05-24T14:31:22;18.90;1.00
10417;DHT22;62605;49.432;8.680;2023-05-24T14:33:50;18.80;1.00
10417;DHT22;62605;49.432;8.680;2023-05-24T14:36:17;18.40;1.00
10417;DHT22;62605;49.432;8.680;2023-05-24T14:38:45;18.60;1.00
10417;DHT22;62605;49.432;8.680;2023-05-24T14:41:14;18.40;1.00
10417;DHT22;62605;49.432;8.680;2023-05-24T14:43:42;18.80;1.00
10417;DHT22;62605;49.432;8.680;2023-05-24T14:46:12;18.40;1.00
10417;DHT22;62605;49.432;8.680;2023-05-24T14:48:42;18.90;1.00
10417;DHT22;62605;49.432;8.680;2023-05-24T14:51:15;19.30;1.00
10417;DHT22;62605;49.432;8.680;2023-05-24T14:53:48;19.20;1.00
10417;DHT22;62605;49.432;8.680;2023-05-24T14:56:29;19.10;1.00
10417;DHT22;62605;49.432;8.680;2023-05-24T14:59:22;19.00;1.00
10417;DHT22;62605;49.432;8.680;2023-05-24T15:02:16;18.70;1.00
10417;DHT22;62605;49.432;8.680;2023-05-24T15:04:59;18.70;1.00
10417;DHT22;62605;49.432;8.680;2023-05-24T15:07:28;18.30;1.00
10417;DHT22;62605;49.432;8.680;2023-05-24T15:09:55;18.60;1.00
10417;DHT22;62605;49.432;8.680;2023-05-24T15:12:23;18.60;1.00
10417;DHT22;62605;49.432;8.680;2023-05-24T15:14:50;18.90;1.00
10417;DHT22;62605;49.432;8.680;2023-05-24T15:17:17;18.80;1.00
10417;DHT22;62605;49.432;8.680;2023-05-24T15:19:45;18.40;1.00
10417;DHT22;62605;49.432;8.680;2023-05-24T15:22:12;18.50;1.00
10417;DHT22;62605;49.432;8.680;2023-05-24T15:24:39;18.80;1.00
10417;DHT22;62605;49.432;8.680;2023-05-24T15:27:06;19.50;1.00
10417;DHT22;62605;49.432;8.680;2023-05-24T15:29:35;19.50;1.00
10417;DHT22;62605;49.432;8.680;2023-05-24T15:32:02;20.10;1.00
10417;DHT22;62605;49.432;8.680;2023-05-24T15:34:29;20.60;1.00
10417;DHT22;62605;49.432;8.680;2023-05-24T15:36:58;19.80;1.00
10417;DHT22;62605;49.432;8.680;2023-05-24T15:39:28;19.90;1.00
10417;DHT22;62605;49.432;8.680;2023-05-24T15:41:55;19.90;1.00
10417;DHT22;62605;49.432;8.680;2023-05-24T15:44:23;20.10;1.00
10417;DHT22;62605;49.432;8.680;2023-05-24T15:46:52;20.20;1.00
10417;DHT22;62605;49.432;8.680;2023-05-24T15:49:19;19.70;1.00
10417;DHT22;62605;49.432;8.680;2023-05-24T15:51:47;19.20;1.00
10417;DHT22;62605;49.432;8.680;2023-05-24T15:54:14;19.60;1.00
10417;DHT22;62605;49.432;8.680;2023-05-24T15:56:41;19.60;1.00
10417;DHT22;62605;49.432;8.680;2023-05-24T15:59:08;18.90;1.00
10417;DHT22;62605;49.432;8.680;2023-05-24T16:01:36;18.60;1.00
10417;DHT22;62605;49.432;8.680;2023-05-24T16:04:04;18.70;1.00
10417;DHT22;62605;49.432;8.680;2023-05-24T16:06:31;18.40;1.00
10417;DHT22;62605;49.432;8.680;2023-05-24T16:08:59;18.50;1.00
10417;DHT22;62605;49.432;8.680;2023-05-24T16:11:26;18.80;1.00